Horseshoe Bend, Arkansas
Current Conditions -  °F | °C
As of 10:55 AM on Saturday 25 Oct 2014 (Local Time) from KBVX Reporting Station
Clear Clear  
Wind Chill: 77°   Ceiling: Unl
Heat Index: 79°   Visibility: 10mi
Dew Point: 64°   Wind: 5mph
Humidity: 65%   Direction: 260°W
Pressure: 30.08"   Gusts: NA
Location:  36.23°N, 91.76°W
Report Text: KBVX 251555Z AUTO 26004KT 10SM CLR 25/18 A3008 RMK AO1
Loading
Personal Weather Stations






























Interactive Weather Map
Tropical Storm Tracking
New forecast layout! Learn more

10-Day Weather Forecast

Advertisements
Track Severe Weather on mobile